KSFF/SFF METAR and TAF weather

Enter ICAO airport designator
Station Type Date Time Source
KSFF METAR 2019/06/17 13:53 UTC NOAA

KSFF 171353Z 29004KT 10SM FEW080 19/11 A2997 RMK AO2 SLP132 T01940111


Station Type Date Time Source
KSFF Decoded METAR 2019/06/17 13:53 UTC NOAA

FELTS FIELD, WA, United States (KSFF) 47-41N 117-19W 609M
Jun 17, 2019 - 09:53 AM EDT / 2019.06.17 1353 UTC
Wind: from the WNW (290 degrees) at 5 MPH (4 KT):0
Visibility: 10 mile(s):0
Sky conditions: mostly clear
Temperature: 66.9 F (19.4 C)
Dew Point: 52.0 F (11.1 C)
Relative Humidity: 58%
Pressure (altimeter): 29.97 in. Hg (1014 hPa)
ob: KSFF 171353Z 29004KT 10SM FEW080 19/11 A2997 RMK AO2 SLP132 T01940111
cycle: 14

Station Type Date Time Source
KSFF TAF 2019/06/17 12:27 UTC NOAA

TAF KSFF 171123Z 1712/1812 VRB03KT P6SM SCT100 BKN250
FM171800 24006KT P6SM SCT070
FM172200 25007KT P6SM VCSH BKN080
FM180300 VRB03KT P6SM FEW080 SCT200
FM180600 19006KT P6SM SCT250

Example: see airport list